createdAt,value
2019-06-26T00:00:55.584Z,26.70
2019-06-26T00:03:25.967Z,27.45
2019-06-26T00:05:56.405Z,28.40
2019-06-26T00:08:26.781Z,28.27
2019-06-26T00:10:58.842Z,28.12
2019-06-26T00:13:29.296Z,27.48
2019-06-26T00:15:59.697Z,27.02
2019-06-26T00:18:30.409Z,29.40
2019-06-26T00:21:00.791Z,28.23
2019-06-26T00:23:32.751Z,31.07
2019-06-26T00:26:04.975Z,29.20
2019-06-26T00:28:35.421Z,31.75
2019-06-26T00:31:06.629Z,29.15
2019-06-26T00:33:37.058Z,27.77
2019-06-26T00:36:07.507Z,30.05
2019-06-26T00:38:40.205Z,28.10
2019-06-26T00:41:10.160Z,30.72
2019-06-26T00:43:42.531Z,28.60
2019-06-26T00:46:12.656Z,30.30
2019-06-26T00:48:43.145Z,30.80
2019-06-26T00:51:13.512Z,29.98
2019-06-26T00:53:43.945Z,31.55
2019-06-26T00:56:17.598Z,32.67
2019-06-26T00:58:48.024Z,31.33
2019-06-26T01:01:18.411Z,31.80
2019-06-26T01:03:50.461Z,31.33
2019-06-26T01:06:38.982Z,33.88
2019-06-26T01:09:09.540Z,33.78
2019-06-26T01:11:41.505Z,33.23
2019-06-26T01:14:11.766Z,33.88
2019-06-26T01:16:42.050Z,31.33
2019-06-26T01:19:12.507Z,32.80
2019-06-26T01:21:42.921Z,32.28
2019-06-26T01:24:13.300Z,33.58
2019-06-26T01:26:43.719Z,34.70
2019-06-26T01:29:14.127Z,30.90
2019-06-26T01:31:44.504Z,36.58
2019-06-26T01:34:14.910Z,31.95
2019-06-26T01:36:45.297Z,32.88
2019-06-26T01:39:15.823Z,32.28
2019-06-26T01:41:47.861Z,32.45
2019-06-26T01:44:19.811Z,36.00
2019-06-26T01:46:50.221Z,34.92
2019-06-26T01:49:22.287Z,36.77
2019-06-26T01:51:52.677Z,33.00
2019-06-26T01:54:23.384Z,33.42
2019-06-26T01:56:53.888Z,34.73
2019-06-26T01:59:24.392Z,32.28
2019-06-26T02:01:54.844Z,32.63
2019-06-26T02:04:25.252Z,33.15
2019-06-26T02:06:55.666Z,32.42
2019-06-26T02:09:27.584Z,32.93
2019-06-26T02:12:00.405Z,31.10
2019-06-26T02:14:31.666Z,33.73
2019-06-26T02:17:02.534Z,35.23
2019-06-26T02:19:33.022Z,30.70
2019-06-26T02:22:03.504Z,33.53
2019-06-26T02:24:33.909Z,33.00
2019-06-26T02:27:04.312Z,34.27
2019-06-26T02:29:34.707Z,34.78
2019-06-26T02:32:05.178Z,34.23
2019-06-26T02:34:35.631Z,36.13
2019-06-26T02:37:07.621Z,34.92
2019-06-26T02:39:38.135Z,37.40
2019-06-26T02:42:08.554Z,34.98
2019-06-26T02:44:52.434Z,36.58
2019-06-26T02:47:19.190Z,39.83
2019-06-26T02:49:43.381Z,41.73
2019-06-26T02:52:13.963Z,39.00
2019-06-26T02:54:44.340Z,37.28
2019-06-26T02:57:14.737Z,40.05
2019-06-26T02:59:45.154Z,35.92
2019-06-26T03:02:15.587Z,35.58
2019-06-26T03:04:47.497Z,37.67
2019-06-26T03:07:17.888Z,35.65
2019-06-26T03:09:50.597Z,39.33
2019-06-26T03:12:21.018Z,36.40
2019-06-26T03:15:04.673Z,34.08
2019-06-26T03:17:23.591Z,36.65
2019-06-26T03:19:55.573Z,36.28
2019-06-26T03:22:25.992Z,36.15
2019-06-26T03:24:56.383Z,36.88
2019-06-26T03:27:26.786Z,35.05
2019-06-26T03:29:57.168Z,37.67
2019-06-26T03:32:27.607Z,37.28
2019-06-26T03:34:58.090Z,38.83
2019-06-26T03:37:28.689Z,34.85
2019-06-26T03:40:00.773Z,34.75
2019-06-26T03:42:31.169Z,37.70
2019-06-26T03:45:01.695Z,37.95
2019-06-26T03:47:32.333Z,35.83
2019-06-26T03:50:04.572Z,35.80
2019-06-26T03:52:35.009Z,37.17
2019-06-26T03:55:06.333Z,34.55
2019-06-26T03:57:36.728Z,40.65
2019-06-26T04:00:08.883Z,36.05
2019-06-26T04:02:39.314Z,35.90
2019-06-26T04:05:09.882Z,39.63
2019-06-26T04:07:40.672Z,37.15
2019-06-26T04:10:15.655Z,39.27
2019-06-26T04:12:46.864Z,36.38
2019-06-26T04:15:17.377Z,35.33
2019-06-26T04:17:47.793Z,36.08
2019-06-26T04:20:18.367Z,38.88
2019-06-26T04:22:49.278Z,38.23
2019-06-26T04:25:19.771Z,35.83
2019-06-26T04:27:50.404Z,34.38
2019-06-26T04:30:21.513Z,39.48
2019-06-26T04:32:51.892Z,39.78
2019-06-26T04:35:23.786Z,36.42
2019-06-26T04:37:54.226Z,35.03
2019-06-26T04:40:24.741Z,35.40
2019-06-26T04:42:55.386Z,37.93
2019-06-26T04:45:25.823Z,39.03
2019-06-26T04:47:57.712Z,43.30
2019-06-26T04:50:28.162Z,35.95
2019-06-26T04:52:58.562Z,40.00
2019-06-26T04:55:29.045Z,38.08
2019-06-26T04:57:59.452Z,40.30
2019-06-26T05:00:29.905Z,36.65
2019-06-26T05:03:00.353Z,36.98
2019-06-26T05:05:39.724Z,36.93
2019-06-26T05:08:02.864Z,36.38
2019-06-26T05:10:33.318Z,35.30
2019-06-26T05:13:03.826Z,41.55
2019-06-26T05:15:34.279Z,36.60
2019-06-26T05:18:04.717Z,36.05
2019-06-26T05:20:35.155Z,38.25
2019-06-26T05:23:05.798Z,39.38
2019-06-26T05:25:36.210Z,41.53
2019-06-26T05:28:08.463Z,34.75
2019-06-26T05:30:39.089Z,38.10
2019-06-26T05:33:09.463Z,33.90
2019-06-26T05:35:39.884Z,34.85
2019-06-26T05:38:10.371Z,36.10
2019-06-26T05:40:41.032Z,34.13
2019-06-26T05:43:13.705Z,35.48
2019-06-26T05:45:44.196Z,34.08
2019-06-26T05:48:14.616Z,34.55
2019-06-26T05:50:45.207Z,30.45
2019-06-26T05:53:15.644Z,31.23
2019-06-26T05:55:46.151Z,33.50
2019-06-26T05:58:16.663Z,29.95
2019-06-26T06:00:48.110Z,31.20
2019-06-26T06:03:18.762Z,28.95
2019-06-26T06:05:49.355Z,29.55
2019-06-26T06:08:19.794Z,29.45
2019-06-26T06:10:50.283Z,27.00
2019-06-26T06:13:20.688Z,30.00
2019-06-26T06:15:51.114Z,32.40
2019-06-26T06:18:21.478Z,26.80
2019-06-26T06:20:51.877Z,28.85
2019-06-26T06:23:23.156Z,28.07
2019-06-26T06:25:53.584Z,27.52
2019-06-26T06:28:23.959Z,28.83
2019-06-26T06:30:54.376Z,25.57
2019-06-26T06:33:24.935Z,28.87
2019-06-26T06:35:55.423Z,29.65
2019-06-26T06:38:25.791Z,26.68
2019-06-26T06:40:55.894Z,29.00
2019-06-26T06:43:26.239Z,27.93
2019-06-26T06:45:56.704Z,25.57
2019-06-26T06:48:27.126Z,29.18
2019-06-26T06:50:58.323Z,28.70
2019-06-26T06:53:28.751Z,26.23
2019-06-26T06:55:59.139Z,30.55
2019-06-26T06:58:30.332Z,38.98
2019-06-26T07:01:02.605Z,27.35
2019-06-26T07:03:34.673Z,28.23
2019-06-26T07:06:06.825Z,34.83
2019-06-26T07:08:37.419Z,33.90
2019-06-26T07:11:07.815Z,29.60
2019-06-26T07:13:38.297Z,30.23
2019-06-26T07:16:10.134Z,28.02
2019-06-26T07:18:40.597Z,31.17
2019-06-26T07:21:12.473Z,28.10
2019-06-26T07:23:42.979Z,26.73
2019-06-26T07:26:13.560Z,22.87
2019-06-26T07:28:44.061Z,22.42
2019-06-26T07:31:14.509Z,22.20
2019-06-26T07:33:45.035Z,23.80
2019-06-26T07:36:15.464Z,23.32
2019-06-26T07:38:45.837Z,31.07
2019-06-26T07:41:16.263Z,28.12
2019-06-26T07:43:46.646Z,27.90
2019-06-26T07:46:17.257Z,22.70
2019-06-26T07:48:47.702Z,22.70
2019-06-26T07:51:18.200Z,19.87
2019-06-26T07:53:48.670Z,23.02
2019-06-26T07:56:19.084Z,23.50
2019-06-26T07:58:49.468Z,20.50
2019-06-26T08:01:19.860Z,19.98
2019-06-26T08:03:50.573Z,27.90
2019-06-26T08:06:21.101Z,19.75
2019-06-26T08:08:51.540Z,22.13
2019-06-26T08:11:23.513Z,28.35
2019-06-26T08:13:53.889Z,23.18
2019-06-26T08:16:24.317Z,19.77
2019-06-26T08:18:54.768Z,21.42
2019-06-26T08:21:25.244Z,22.85
2019-06-26T08:23:55.674Z,23.32
2019-06-26T08:26:27.637Z,21.48
2019-06-26T08:28:58.084Z,22.42
2019-06-26T08:31:28.488Z,22.65
2019-06-26T08:33:59.002Z,25.75
2019-06-26T08:36:29.549Z,38.60
2019-06-26T08:38:59.941Z,22.80
2019-06-26T08:41:30.489Z,22.00
2019-06-26T08:44:00.942Z,23.85
2019-06-26T08:46:31.420Z,24.55
2019-06-26T08:49:03.307Z,24.52
2019-06-26T08:51:33.759Z,25.65
2019-06-26T08:54:04.888Z,28.10
2019-06-26T08:56:36.308Z,27.27
2019-06-26T08:59:06.703Z,28.50
2019-06-26T09:01:37.181Z,28.92
2019-06-26T09:04:07.572Z,28.00
2019-06-26T09:06:38.077Z,24.27
2019-06-26T09:09:08.525Z,23.65
2019-06-26T09:11:38.957Z,22.15
2019-06-26T09:14:09.387Z,39.58
2019-06-26T09:16:39.806Z,22.13
2019-06-26T09:19:10.177Z,27.90
2019-06-26T09:21:40.769Z,20.57
2019-06-26T09:24:11.305Z,21.75
2019-06-26T09:26:41.770Z,31.42
2019-06-26T09:29:12.272Z,18.65
2019-06-26T09:31:42.663Z,15.32
2019-06-26T09:34:13.141Z,18.70
2019-06-26T09:36:43.588Z,16.90
2019-06-26T09:39:14.116Z,19.25
2019-06-26T09:41:46.167Z,15.43
2019-06-26T09:44:18.042Z,25.95
2019-06-26T09:46:48.461Z,16.48
2019-06-26T09:49:20.404Z,15.68
2019-06-26T09:51:50.826Z,13.50
2019-06-26T09:54:21.314Z,17.82
2019-06-26T09:56:51.704Z,15.68
2019-06-26T09:59:22.112Z,29.70
2019-06-26T10:01:52.840Z,17.25
2019-06-26T10:04:23.643Z,12.18
2019-06-26T10:06:54.129Z,50.45
2019-06-26T10:09:24.595Z,18.40
2019-06-26T10:11:55.090Z,18.98
2019-06-26T10:14:46.097Z,14.60
2019-06-26T10:16:59.131Z,30.10
2019-06-26T10:19:29.689Z,11.50
2019-06-26T10:22:00.244Z,14.65
2019-06-26T10:24:30.623Z,14.35
2019-06-26T10:27:01.134Z,13.55
2019-06-26T10:29:31.557Z,14.73
2019-06-26T10:32:02.095Z,14.45
2019-06-26T10:34:32.684Z,16.10
2019-06-26T10:37:03.258Z,21.02
2019-06-26T10:39:33.766Z,16.95
2019-06-26T10:42:07.443Z,11.90
2019-06-26T10:44:37.994Z,14.70
2019-06-26T10:47:08.497Z,15.28
2019-06-26T10:49:38.908Z,18.80
2019-06-26T10:52:10.804Z,29.60
2019-06-26T10:54:44.326Z,28.42
2019-06-26T10:57:13.337Z,11.22
2019-06-26T10:59:43.785Z,22.22
2019-06-26T11:02:16.862Z,15.48
2019-06-26T11:04:46.302Z,15.90
2019-06-26T11:07:16.708Z,13.98
2019-06-26T11:09:47.256Z,19.80
2019-06-26T11:12:19.519Z,15.58
2019-06-26T11:14:55.473Z,18.98
2019-06-26T11:17:25.967Z,16.17
2019-06-26T11:19:56.340Z,24.57
2019-06-26T11:22:26.801Z,16.32
2019-06-26T11:24:59.100Z,17.77
2019-06-26T11:27:29.565Z,22.52
2019-06-26T11:30:00.044Z,24.18
2019-06-26T11:32:30.463Z,23.47
2019-06-26T11:35:02.005Z,24.37
2019-06-26T11:37:34.074Z,18.85
2019-06-26T11:40:06.309Z,23.22
2019-06-26T11:42:38.190Z,22.93
2019-06-26T11:45:09.163Z,13.05
2019-06-26T11:47:39.652Z,29.65
2019-06-26T11:50:11.270Z,20.88
2019-06-26T11:52:41.739Z,14.50
2019-06-26T11:55:12.677Z,12.47
2019-06-26T11:57:43.177Z,12.43
2019-06-26T12:00:16.266Z,13.80
2019-06-26T12:02:46.756Z,20.90
2019-06-26T12:05:18.617Z,17.62
2019-06-26T12:07:49.898Z,20.80
2019-06-26T12:10:20.908Z,14.10
2019-06-26T12:12:51.396Z,14.87
2019-06-26T12:15:23.676Z,20.43
2019-06-26T12:17:54.170Z,29.98
2019-06-26T12:20:24.600Z,18.17
2019-06-26T12:22:55.032Z,23.57
2019-06-26T12:25:25.407Z,16.25
2019-06-26T12:27:55.867Z,13.10
2019-06-26T12:30:26.247Z,16.75
2019-06-26T12:33:03.087Z,16.87
2019-06-26T12:35:28.800Z,21.73
2019-06-26T12:37:59.180Z,15.83
2019-06-26T12:40:31.295Z,12.45
2019-06-26T12:43:01.762Z,15.72
2019-06-26T12:45:32.293Z,16.27
2019-06-26T12:48:02.750Z,13.45
2019-06-26T12:50:35.910Z,18.75
2019-06-26T12:53:05.342Z,58.17
2019-06-26T12:55:35.753Z,16.75
2019-06-26T12:58:14.792Z,14.87
2019-06-26T13:00:39.738Z,10.68
2019-06-26T13:03:10.160Z,13.80
2019-06-26T13:05:40.552Z,12.98
2019-06-26T13:08:10.941Z,14.73
2019-06-26T13:10:49.527Z,11.18
2019-06-26T13:13:15.088Z,13.10
2019-06-26T13:15:45.529Z,12.33
2019-06-26T13:18:15.954Z,13.75
2019-06-26T13:20:52.661Z,20.05
2019-06-26T13:23:18.659Z,14.98
2019-06-26T13:25:49.136Z,17.50
2019-06-26T13:28:19.568Z,20.48
2019-06-26T13:30:53.050Z,20.57
2019-06-26T13:33:22.050Z,15.43
2019-06-26T13:35:52.452Z,15.43
2019-06-26T13:38:27.074Z,21.23
2019-06-26T13:40:56.552Z,19.23
2019-06-26T13:43:26.979Z,9.83
2019-06-26T13:45:59.056Z,16.82
2019-06-26T13:48:29.640Z,13.62
2019-06-26T13:51:09.292Z,15.68
2019-06-26T13:53:32.123Z,12.68
2019-06-26T13:56:02.901Z,16.75
2019-06-26T13:58:33.388Z,15.78
2019-06-26T14:01:04.269Z,15.08
2019-06-26T14:03:39.249Z,14.87
2019-06-26T14:06:09.830Z,15.50
2019-06-26T14:08:40.263Z,14.80
2019-06-26T14:11:10.716Z,14.73
2019-06-26T14:13:42.029Z,10.18
2019-06-26T14:16:12.705Z,14.65
2019-06-26T14:18:43.124Z,15.90
2019-06-26T14:21:24.940Z,13.45
2019-06-26T14:23:45.639Z,12.88
2019-06-26T14:26:17.544Z,18.80
2019-06-26T14:28:48.052Z,15.43
2019-06-26T14:31:25.905Z,11.15
2019-06-26T14:33:56.201Z,11.75
2019-06-26T14:36:26.619Z,16.30
2019-06-26T14:38:59.296Z,12.93
2019-06-26T14:41:29.599Z,12.50
2019-06-26T14:44:02.412Z,15.60
2019-06-26T14:46:32.569Z,9.05
2019-06-26T14:49:02.801Z,9.35
2019-06-26T14:51:46.450Z,13.98
2019-06-26T14:54:06.834Z,12.78
2019-06-26T14:56:37.101Z,18.02
2019-06-26T14:59:07.452Z,13.08
2019-06-26T15:01:37.868Z,8.98
2019-06-26T15:04:09.636Z,18.02
2019-06-26T15:06:39.913Z,14.23
2019-06-26T15:09:10.235Z,13.15
2019-06-26T15:11:40.434Z,13.62
2019-06-26T15:14:10.860Z,13.68
2019-06-26T15:16:41.143Z,9.63
2019-06-26T15:19:11.412Z,13.05
2019-06-26T15:21:54.181Z,13.98
2019-06-26T15:24:15.241Z,10.63
2019-06-26T15:26:45.445Z,13.83
2019-06-26T15:29:15.690Z,42.60
2019-06-26T15:31:45.999Z,14.10
2019-06-26T15:34:17.891Z,10.13
2019-06-26T15:36:48.092Z,11.85
2019-06-26T15:39:18.332Z,7.87
2019-06-26T15:41:48.576Z,21.68
2019-06-26T15:44:18.877Z,11.12
2019-06-26T15:46:49.206Z,13.13
2019-06-26T15:49:19.456Z,11.85
2019-06-26T15:51:49.789Z,13.62
2019-06-26T15:54:20.195Z,11.90
2019-06-26T15:56:50.629Z,14.30
2019-06-26T15:59:21.001Z,12.93
2019-06-26T16:01:54.367Z,12.85
2019-06-26T16:04:26.570Z,8.53
2019-06-26T16:06:58.652Z,9.80
2019-06-26T16:09:28.932Z,18.73
2019-06-26T16:11:59.356Z,12.05
2019-06-26T16:14:29.627Z,9.25
2019-06-26T16:17:01.614Z,8.63
2019-06-26T16:19:33.460Z,14.07
2019-06-26T16:22:03.901Z,19.02
2019-06-26T16:24:34.149Z,10.15
2019-06-26T16:27:04.551Z,15.25
2019-06-26T16:29:34.961Z,8.73
2019-06-26T16:32:05.327Z,8.90
2019-06-26T16:34:35.699Z,10.13
2019-06-26T16:37:06.018Z,11.70
2019-06-26T16:39:36.324Z,11.28
2019-06-26T16:42:06.700Z,11.38
2019-06-26T16:44:37.001Z,9.08
2019-06-26T16:47:07.270Z,10.90
2019-06-26T16:49:37.629Z,8.53
2019-06-26T16:52:08.070Z,12.00
2019-06-26T16:54:39.918Z,12.07
2019-06-26T16:57:10.534Z,15.48
2019-06-26T16:59:40.816Z,15.00
2019-06-26T17:02:11.137Z,10.43
2019-06-26T17:04:41.595Z,11.30
2019-06-26T17:07:12.083Z,7.72
2019-06-26T17:09:44.449Z,12.75
2019-06-26T17:12:14.428Z,9.48
2019-06-26T17:14:44.787Z,12.35
2019-06-26T17:17:16.764Z,9.70
2019-06-26T17:19:47.001Z,16.52
2019-06-26T17:22:17.296Z,8.78
2019-06-26T17:24:47.748Z,14.73
2019-06-26T17:27:18.017Z,12.95
2019-06-26T17:29:48.349Z,11.75
2019-06-26T17:32:18.664Z,15.68
2019-06-26T17:34:49.059Z,15.05
2019-06-26T17:37:19.301Z,9.93
2019-06-26T17:39:49.727Z,12.90
2019-06-26T17:42:20.149Z,10.80
2019-06-26T17:44:50.463Z,9.63
2019-06-26T17:47:20.817Z,14.65
2019-06-26T17:49:51.067Z,11.97
2019-06-26T17:52:21.452Z,12.15
2019-06-26T17:54:51.742Z,14.50
2019-06-26T17:57:21.955Z,11.10
2019-06-26T17:59:52.140Z,9.25
2019-06-26T18:02:24.236Z,8.58
2019-06-26T18:04:56.357Z,11.50
2019-06-26T18:07:26.643Z,9.30
2019-06-26T18:09:57.118Z,13.03
2019-06-26T18:12:27.457Z,11.33
2019-06-26T18:14:57.776Z,10.78
2019-06-26T18:17:28.043Z,11.43
2019-06-26T18:19:58.465Z,14.10
2019-06-26T18:22:28.870Z,12.75
2019-06-26T18:25:00.999Z,20.25
2019-06-26T18:27:31.360Z,13.90
2019-06-26T18:30:02.658Z,16.45
2019-06-26T18:32:32.851Z,9.20
2019-06-26T18:35:03.831Z,14.58
2019-06-26T18:37:34.116Z,15.53
2019-06-26T18:40:09.062Z,12.23
2019-06-26T18:42:39.318Z,9.10
2019-06-26T18:45:09.755Z,13.00
2019-06-26T18:47:39.996Z,13.28
2019-06-26T18:50:10.756Z,15.53
2019-06-26T18:52:41.256Z,20.72
2019-06-26T18:55:11.594Z,15.70
2019-06-26T18:57:42.056Z,17.95
2019-06-26T19:00:12.378Z,16.70
2019-06-26T19:02:42.637Z,19.02
2019-06-26T19:05:13.909Z,17.07
2019-06-26T19:07:44.280Z,16.32
2019-06-26T19:10:14.835Z,18.87
2019-06-26T19:12:45.443Z,20.57
2019-06-26T19:15:16.611Z,26.23
2019-06-26T19:17:48.607Z,26.12
2019-06-26T19:20:19.853Z,24.72
2019-06-26T19:22:50.095Z,17.98
2019-06-26T19:25:20.501Z,19.82
2019-06-26T19:27:50.795Z,16.90
2019-06-26T19:30:21.516Z,13.53
2019-06-26T19:32:52.001Z,12.00
2019-06-26T19:35:22.378Z,13.20
2019-06-26T19:37:52.835Z,11.30
2019-06-26T19:40:24.261Z,10.60
2019-06-26T19:42:55.481Z,11.30
2019-06-26T19:45:26.365Z,13.53
2019-06-26T19:47:58.081Z,11.22
2019-06-26T19:50:28.605Z,13.00
2019-06-26T19:53:01.662Z,15.32
2019-06-26T19:55:32.346Z,16.12
2019-06-26T19:58:02.780Z,10.43
2019-06-26T20:00:34.114Z,14.63
2019-06-26T20:03:04.847Z,13.78
2019-06-26T20:05:35.579Z,9.55
2019-06-26T20:08:06.023Z,8.98
2019-06-26T20:10:36.410Z,12.68
2019-06-26T20:13:06.925Z,9.78
2019-06-26T20:15:39.531Z,15.80
2019-06-26T20:18:10.009Z,10.15
2019-06-26T20:20:40.325Z,11.12
2019-06-26T20:23:10.577Z,14.78
2019-06-26T20:25:43.338Z,12.10
2019-06-26T20:28:13.668Z,11.85
2019-06-26T20:30:44.610Z,11.78
2019-06-26T20:33:15.136Z,10.80
2019-06-26T20:35:47.162Z,11.80
2019-06-26T20:38:17.789Z,15.53
2019-06-26T20:40:48.493Z,11.97
2019-06-26T20:43:18.940Z,11.53
2019-06-26T20:45:49.404Z,14.93
2019-06-26T20:48:20.017Z,17.32
2019-06-26T20:50:50.478Z,16.75
2019-06-26T20:53:22.343Z,18.60
2019-06-26T20:55:54.105Z,13.58
2019-06-26T20:58:24.753Z,14.20
2019-06-26T21:00:56.986Z,11.93
2019-06-26T21:03:28.241Z,15.53
2019-06-26T21:05:58.740Z,10.82
2019-06-26T21:08:29.671Z,10.63
2019-06-26T21:11:00.519Z,11.25
2019-06-26T21:13:31.460Z,11.68
2019-06-26T21:16:01.850Z,13.40
2019-06-26T21:18:32.385Z,16.37
2019-06-26T21:21:02.851Z,18.85
2019-06-26T21:23:34.060Z,12.65
2019-06-26T21:26:04.564Z,10.95
2019-06-26T21:28:36.334Z,13.40
2019-06-26T21:31:07.052Z,12.25
2019-06-26T21:33:39.075Z,13.35
2019-06-26T21:36:09.419Z,12.58
2019-06-26T21:38:41.299Z,13.60
2019-06-26T21:41:11.664Z,12.05
2019-06-26T21:43:42.034Z,16.00
2019-06-26T21:46:13.924Z,13.85
2019-06-26T21:48:44.274Z,16.73
2019-06-26T21:51:14.684Z,14.83
2019-06-26T21:53:45.244Z,15.90
2019-06-26T21:56:15.590Z,13.43
2019-06-26T21:58:45.929Z,16.50
2019-06-26T22:01:16.628Z,14.00
2019-06-26T22:03:47.040Z,13.88
2019-06-26T22:06:17.380Z,17.40
2019-06-26T22:08:47.792Z,13.90
2019-06-26T22:11:18.199Z,14.80
2019-06-26T22:13:49.116Z,12.43
2019-06-26T22:16:19.280Z,17.37
2019-06-26T22:18:49.480Z,12.35
2019-06-26T22:21:19.970Z,12.50
2019-06-26T22:23:50.209Z,12.70
2019-06-26T22:26:20.615Z,15.58
2019-06-26T22:28:50.925Z,16.93
2019-06-26T22:31:21.352Z,12.95
2019-06-26T22:33:51.660Z,17.57
2019-06-26T22:36:22.101Z,13.28
2019-06-26T22:38:52.473Z,13.32
2019-06-26T22:41:22.810Z,12.63
2019-06-26T22:43:53.037Z,18.65
2019-06-26T22:46:23.460Z,13.95
2019-06-26T22:48:53.809Z,14.30
2019-06-26T22:51:25.685Z,16.45
2019-06-26T22:53:56.059Z,15.65
2019-06-26T22:56:27.921Z,16.15
2019-06-26T22:58:58.331Z,16.87
2019-06-26T23:01:28.629Z,17.10
2019-06-26T23:03:58.977Z,13.60
2019-06-26T23:06:29.272Z,16.52
2019-06-26T23:08:59.627Z,14.45
2019-06-26T23:11:29.937Z,14.03
2019-06-26T23:14:00.274Z,15.88
2019-06-26T23:16:30.817Z,15.78
2019-06-26T23:19:01.180Z,16.75
2019-06-26T23:21:33.138Z,14.68
2019-06-26T23:24:03.542Z,17.00
2019-06-26T23:26:35.393Z,20.77
2019-06-26T23:29:05.814Z,16.73
2019-06-26T23:31:36.200Z,15.40
2019-06-26T23:34:06.570Z,18.23
2019-06-26T23:36:36.890Z,18.10
2019-06-26T23:39:07.321Z,16.05
2019-06-26T23:41:37.769Z,17.05
2019-06-26T23:44:08.113Z,18.65
2019-06-26T23:46:38.500Z,18.52
2019-06-26T23:49:08.852Z,17.30
2019-06-26T23:51:39.158Z,17.98
2019-06-26T23:54:09.445Z,16.27
2019-06-26T23:56:40.970Z,24.65
2019-06-26T23:59:11.374Z,16.87
